createdAt,value
2022-08-26T00:01:15.721Z,97980.50
2022-08-26T00:03:42.408Z,97978.47
2022-08-26T00:06:09.752Z,97979.97
2022-08-26T00:08:39.580Z,97976.91
2022-08-26T00:11:08.421Z,97982.25
2022-08-26T00:13:36.949Z,97976.91
2022-08-26T00:16:05.583Z,97972.84
2022-08-26T00:18:38.787Z,97973.94
2022-08-26T00:21:08.419Z,97973.94
2022-08-26T00:23:35.497Z,97975.41
2022-08-26T00:26:02.353Z,97972.94
2022-08-26T00:28:29.046Z,97982.22
2022-08-26T00:30:55.678Z,97982.81
2022-08-26T00:33:22.973Z,97976.66
2022-08-26T00:35:50.199Z,97981.19
2022-08-26T00:38:18.437Z,97982.22
2022-08-26T00:40:55.178Z,97976.63
2022-08-26T00:43:22.588Z,97979.31
2022-08-26T00:45:55.581Z,97979.50
2022-08-26T00:48:25.025Z,97978.63
2022-08-26T00:50:58.648Z,97970.13
2022-08-26T00:53:28.167Z,97968.66
2022-08-26T00:56:03.043Z,97980.84
2022-08-26T00:58:32.293Z,97973.63
2022-08-26T01:01:00.386Z,97978.59
2022-08-26T01:03:27.971Z,97983.34
2022-08-26T01:05:57.386Z,97987.06
2022-08-26T01:08:24.590Z,97984.25
2022-08-26T01:10:52.404Z,97993.53
2022-08-26T01:13:22.799Z,97985.13
2022-08-26T01:15:55.837Z,97995.69
2022-08-26T01:18:23.126Z,97996.56
2022-08-26T01:21:06.154Z,97996.56
2022-08-26T01:23:40.528Z,97995.56
2022-08-26T01:26:19.765Z,97995.38
2022-08-26T01:28:50.641Z,97991.06
2022-08-26T01:31:21.105Z,97986.72
2022-08-26T01:34:12.739Z,97989.22
2022-08-26T01:36:39.595Z,97992.34
2022-08-26T01:39:07.354Z,97990.09
2022-08-26T01:41:36.461Z,97990.09
2022-08-26T01:44:05.887Z,97988.22
2022-08-26T01:46:36.679Z,97992.09
2022-08-26T01:49:06.474Z,97986.38
2022-08-26T01:51:36.996Z,97985.97
2022-08-26T01:54:05.284Z,97987.41
2022-08-26T01:56:33.467Z,97977.97
2022-08-26T01:59:05.995Z,97982.50
2022-08-26T02:01:34.178Z,97986.84
2022-08-26T02:04:07.087Z,97981.47
2022-08-26T02:06:36.472Z,97990.94
2022-08-26T02:09:04.631Z,97987.41
2022-08-26T02:11:31.359Z,97991.34
2022-08-26T02:14:02.758Z,97993.00
2022-08-26T02:16:42.762Z,97993.81
2022-08-26T02:19:17.158Z,97995.06
2022-08-26T02:21:45.904Z,98004.94
2022-08-26T02:24:27.564Z,97996.31
2022-08-26T02:26:56.660Z,98000.03
2022-08-26T02:29:29.771Z,97997.13
2022-08-26T02:31:58.234Z,97991.81
2022-08-26T02:34:31.738Z,97989.91
2022-08-26T02:37:00.620Z,97991.38
2022-08-26T02:39:29.537Z,97994.25
2022-08-26T02:41:56.730Z,97996.75
2022-08-26T02:44:23.315Z,97990.16
2022-08-26T02:46:54.170Z,97992.25
2022-08-26T02:49:21.796Z,97987.50
2022-08-26T02:51:49.487Z,97988.97
2022-08-26T02:54:17.234Z,97980.75
2022-08-26T02:56:44.438Z,97979.50
2022-08-26T02:59:12.680Z,97982.81
2022-08-26T03:01:40.559Z,97980.16
2022-08-26T03:04:10.243Z,97981.78
2022-08-26T03:06:37.292Z,97981.19
2022-08-26T03:09:05.535Z,97988.00
2022-08-26T03:11:33.203Z,97982.03
2022-08-26T03:14:00.578Z,97978.34
2022-08-26T03:16:32.358Z,97982.03
2022-08-26T03:19:00.316Z,97979.34
2022-08-26T03:21:27.124Z,97976.06
2022-08-26T03:23:54.156Z,97975.66
2022-08-26T03:26:25.366Z,97970.91
2022-08-26T03:29:11.382Z,97965.97
2022-08-26T03:31:38.155Z,97968.03
2022-08-26T03:34:05.282Z,97973.34
2022-08-26T03:36:32.126Z,97967.19
2022-08-26T03:39:02.040Z,97974.38
2022-08-26T03:41:28.913Z,97975.41
2022-08-26T03:44:00.979Z,97976.63
2022-08-26T03:46:28.501Z,97975.00
2022-08-26T03:48:55.334Z,97971.28
2022-08-26T03:51:21.897Z,97971.28
2022-08-26T03:53:50.977Z,97977.88
2022-08-26T03:56:17.550Z,97972.13
2022-08-26T03:58:44.619Z,97971.31
2022-08-26T04:01:15.369Z,97975.03
2022-08-26T04:04:00.340Z,97979.19
2022-08-26T04:06:39.856Z,97971.97
2022-08-26T04:09:09.265Z,97977.94
2022-08-26T04:11:38.633Z,97976.72
2022-08-26T04:14:14.182Z,97975.28
2022-08-26T04:16:45.093Z,97974.88
2022-08-26T04:19:13.373Z,97977.75
2022-08-26T04:21:41.265Z,97980.00
2022-08-26T04:24:12.034Z,97984.53
2022-08-26T04:26:42.686Z,97982.91
2022-08-26T04:29:14.284Z,97980.41
2022-08-26T04:31:41.307Z,97980.19
2022-08-26T04:34:08.280Z,97974.66
2022-08-26T04:36:37.778Z,97977.72
2022-08-26T04:39:05.898Z,97977.53
2022-08-26T04:41:33.161Z,97974.44
2022-08-26T04:43:59.814Z,97977.09
2022-08-26T04:46:26.545Z,97975.06
2022-08-26T04:48:55.286Z,97973.88
2022-08-26T04:51:27.379Z,97975.09
2022-08-26T04:53:58.761Z,97973.41
2022-08-26T04:56:27.872Z,97973.00
2022-08-26T04:58:55.235Z,97971.53
2022-08-26T05:01:22.448Z,97976.88
2022-08-26T05:03:51.072Z,97979.31
2022-08-26T05:06:19.377Z,97986.25
2022-08-26T05:08:46.313Z,97982.50
2022-08-26T05:11:13.697Z,97984.53
2022-08-26T05:13:40.422Z,97979.94
2022-08-26T05:16:09.690Z,97985.81
2022-08-26T05:18:39.537Z,97983.06
2022-08-26T05:21:07.186Z,97970.81
2022-08-26T05:23:35.637Z,97974.88
2022-08-26T05:26:02.261Z,97984.75
2022-08-26T05:28:31.811Z,97983.28
2022-08-26T05:30:58.742Z,97988.63
2022-08-26T05:33:25.461Z,97986.38
2022-08-26T05:35:52.104Z,97988.44
2022-08-26T05:38:21.395Z,97987.00
2022-08-26T05:40:52.871Z,97979.31
2022-08-26T05:43:20.514Z,97987.41
2022-08-26T05:45:49.535Z,97987.22
2022-08-26T05:48:18.621Z,97989.41
2022-08-26T05:50:51.290Z,97993.56
2022-08-26T05:53:20.223Z,97999.78
2022-08-26T05:55:51.791Z,97999.03
2022-08-26T05:58:20.944Z,98002.53
2022-08-26T06:01:05.748Z,97994.97
2022-08-26T06:03:34.211Z,97998.09
2022-08-26T06:06:09.791Z,98004.22
2022-08-26T06:08:38.032Z,98008.09
2022-08-26T06:11:08.047Z,98008.50
2022-08-26T06:13:45.482Z,98009.31
2022-08-26T06:16:14.446Z,98004.75
2022-08-26T06:18:43.055Z,98010.28
2022-08-26T06:21:33.459Z,98013.31
2022-08-26T06:24:26.954Z,98016.75
2022-08-26T06:26:56.175Z,98024.34
2022-08-26T06:29:25.376Z,98024.66
2022-08-26T06:31:53.467Z,98019.13
2022-08-26T06:34:20.130Z,98016.75
2022-08-26T06:36:47.778Z,98019.25
2022-08-26T06:39:16.774Z,98016.84
2022-08-26T06:41:45.033Z,98019.81
2022-08-26T06:44:18.360Z,98018.44
2022-08-26T06:46:46.232Z,98021.25
2022-08-26T06:49:17.403Z,98021.44
2022-08-26T06:51:44.460Z,98029.16
2022-08-26T06:54:11.467Z,98019.63
2022-08-26T06:56:40.911Z,98023.13
2022-08-26T06:59:08.240Z,98019.75
2022-08-26T07:01:38.621Z,98013.44
2022-08-26T07:04:10.540Z,98024.91
2022-08-26T07:06:41.652Z,98018.94
2022-08-26T07:09:10.319Z,98022.97
2022-08-26T07:11:38.496Z,98018.25
2022-08-26T07:14:06.038Z,98022.25
2022-08-26T07:16:33.487Z,98026.38
2022-08-26T07:19:01.120Z,98025.22
2022-08-26T07:21:30.058Z,98024.88
2022-08-26T07:24:01.401Z,98025.47
2022-08-26T07:26:30.014Z,98024.41
2022-08-26T07:28:57.783Z,98032.69
2022-08-26T07:31:28.176Z,98038.19
2022-08-26T07:33:56.785Z,98041.22
2022-08-26T07:36:24.449Z,98037.66
2022-08-26T07:38:51.674Z,98036.13
2022-08-26T07:41:20.908Z,98031.66
2022-08-26T07:43:47.956Z,98033.34
2022-08-26T07:46:18.559Z,98036.13
2022-08-26T07:48:53.649Z,98025.50
2022-08-26T07:51:21.272Z,98030.75
2022-08-26T07:53:52.339Z,98030.94
2022-08-26T07:56:20.800Z,98033.56
2022-08-26T07:58:51.275Z,98030.53
2022-08-26T08:01:18.921Z,98028.31
2022-08-26T08:03:45.498Z,98029.13
2022-08-26T08:06:12.360Z,98030.72
2022-08-26T08:08:41.320Z,98027.50
2022-08-26T08:11:08.278Z,98035.50
2022-08-26T08:13:37.399Z,98030.44
2022-08-26T08:16:04.963Z,98036.00
2022-08-26T08:18:31.640Z,98027.50
2022-08-26T08:21:21.142Z,98026.56
2022-08-26T08:23:47.490Z,98026.38
2022-08-26T08:26:14.236Z,98024.50
2022-08-26T08:28:40.990Z,98022.25
2022-08-26T08:31:52.538Z,98027.13
2022-08-26T08:34:15.395Z,98025.31
2022-08-26T08:36:41.973Z,98020.16
2022-08-26T08:39:09.287Z,98018.28
2022-08-26T08:42:09.408Z,98019.28
2022-08-26T08:44:38.526Z,98021.19
2022-08-26T08:47:16.117Z,98008.66
2022-08-26T08:49:43.384Z,98012.47
2022-08-26T08:52:18.959Z,98020.22
2022-08-26T08:54:46.484Z,98009.72
2022-08-26T08:57:32.804Z,98008.94
2022-08-26T09:00:11.172Z,98008.75
2022-08-26T09:02:50.464Z,98001.78
2022-08-26T09:05:31.972Z,98009.94
2022-08-26T09:08:11.120Z,97998.38
2022-08-26T09:10:44.665Z,97993.22
2022-08-26T09:13:17.060Z,97994.69
2022-08-26T09:16:01.557Z,97990.59
2022-08-26T09:18:55.689Z,97986.56
2022-08-26T09:21:23.869Z,97991.13
2022-08-26T09:23:55.377Z,97989.53
2022-08-26T09:26:31.090Z,97990.94
2022-08-26T09:29:02.374Z,97982.25
2022-08-26T09:31:32.419Z,97979.00
2022-08-26T09:34:17.846Z,97976.81
2022-08-26T09:36:51.347Z,97974.88
2022-08-26T09:39:23.920Z,97967.34
2022-08-26T09:42:25.394Z,97960.78
2022-08-26T09:44:59.406Z,97957.81
2022-08-26T09:47:30.302Z,97955.34
2022-08-26T09:50:28.711Z,97949.91
2022-08-26T09:53:12.834Z,97938.50
2022-08-26T09:55:42.524Z,97932.53
2022-08-26T09:58:14.328Z,97929.22
2022-08-26T10:00:43.594Z,97925.66
2022-08-26T10:03:12.292Z,97921.91
2022-08-26T10:05:57.077Z,97934.84
2022-08-26T10:08:31.498Z,97929.63
2022-08-26T10:11:01.810Z,97925.53
2022-08-26T10:13:31.323Z,97919.19
2022-08-26T10:16:17.848Z,97912.66
2022-08-26T10:19:22.106Z,97913.78
2022-08-26T10:22:25.916Z,97911.59
2022-08-26T10:24:59.010Z,97909.84
2022-08-26T10:27:37.296Z,97917.66
2022-08-26T10:30:13.150Z,97916.78
2022-08-26T10:32:46.700Z,97911.22
2022-08-26T10:35:15.722Z,97912.25
2022-08-26T10:37:54.124Z,97920.75
2022-08-26T10:40:26.001Z,97916.75
2022-08-26T10:43:14.587Z,97920.19
2022-08-26T10:45:49.359Z,97915.69
2022-08-26T10:48:25.682Z,97916.69
2022-08-26T10:51:04.043Z,97916.78
2022-08-26T10:53:32.641Z,97908.31
2022-08-26T10:56:18.562Z,97906.81
2022-08-26T10:59:03.597Z,97899.50
2022-08-26T11:01:50.851Z,97899.34
2022-08-26T11:04:17.746Z,97891.00
2022-08-26T11:06:46.080Z,97887.91
2022-08-26T11:09:43.148Z,97886.28
2022-08-26T11:12:10.326Z,97882.41
2022-08-26T11:14:45.985Z,97879.72
2022-08-26T11:17:44.877Z,97878.13
2022-08-26T11:20:23.937Z,97882.19
2022-08-26T11:22:53.055Z,97883.09
2022-08-26T11:25:29.648Z,97876.72
2022-08-26T11:27:59.930Z,97875.72
2022-08-26T11:30:35.813Z,97872.63
2022-08-26T11:33:02.501Z,97866.28
2022-08-26T11:35:37.436Z,97860.91
2022-08-26T11:38:20.559Z,97863.34
2022-08-26T11:40:56.719Z,97859.31
2022-08-26T11:43:25.999Z,97862.44
2022-08-26T11:46:07.273Z,97852.84
2022-08-26T11:48:41.065Z,97845.81
2022-08-26T11:51:13.542Z,97852.69
2022-08-26T11:53:44.898Z,97850.75
2022-08-26T11:56:31.627Z,97868.25
2022-08-26T11:59:00.883Z,97868.13
2022-08-26T12:01:37.148Z,97876.06
2022-08-26T12:04:07.015Z,97876.06
2022-08-26T12:06:46.660Z,97878.63
2022-08-26T12:09:34.329Z,97874.44
2022-08-26T12:12:12.313Z,97872.81
2022-08-26T12:14:39.663Z,97869.81
2022-08-26T12:17:19.306Z,97871.72
2022-08-26T12:19:49.087Z,97871.19
2022-08-26T12:22:21.115Z,97851.69
2022-08-26T12:24:51.075Z,97855.47
2022-08-26T12:27:20.516Z,97857.09
2022-08-26T12:30:15.864Z,97862.25
2022-08-26T12:32:55.134Z,97857.88
2022-08-26T12:35:24.987Z,97863.25
2022-08-26T12:37:52.846Z,97846.59
2022-08-26T12:40:28.890Z,97841.28
2022-08-26T12:42:56.465Z,97840.03
2022-08-26T12:45:28.849Z,97834.22
2022-08-26T12:47:58.470Z,97832.16
2022-08-26T12:50:35.603Z,97826.97
2022-08-26T12:53:10.904Z,97835.19
2022-08-26T12:55:55.161Z,97831.53
2022-08-26T12:58:33.008Z,97826.34
2022-08-26T13:01:08.946Z,97825.34
2022-08-26T13:03:37.415Z,97824.97
2022-08-26T13:06:16.004Z,97816.69
2022-08-26T13:08:48.014Z,97810.31
2022-08-26T13:11:21.183Z,97812.78
2022-08-26T13:13:53.633Z,97801.75
2022-08-26T13:16:21.851Z,97789.34
2022-08-26T13:18:51.501Z,97786.44
2022-08-26T13:21:21.448Z,97786.28
2022-08-26T13:23:48.861Z,97781.81
2022-08-26T13:26:15.556Z,97772.34
2022-08-26T13:28:42.686Z,97775.28
2022-08-26T13:31:13.644Z,97765.13
2022-08-26T13:33:40.884Z,97763.66
2022-08-26T13:36:08.161Z,97771.75
2022-08-26T13:38:34.774Z,97779.66
2022-08-26T13:41:04.058Z,97779.84
2022-08-26T13:43:31.178Z,97775.78
2022-08-26T13:45:57.856Z,97772.25
2022-08-26T13:48:24.447Z,97770.34
2022-08-26T13:50:52.113Z,97772.00
2022-08-26T13:53:18.772Z,97770.34
2022-08-26T13:55:45.410Z,97768.34
2022-08-26T13:58:13.541Z,97764.53
2022-08-26T14:00:41.293Z,97761.84
2022-08-26T14:03:13.116Z,97757.56
2022-08-26T14:05:40.334Z,97767.34
2022-08-26T14:08:07.080Z,97749.44
2022-08-26T14:10:34.056Z,97755.44
2022-08-26T14:13:02.483Z,97755.47
2022-08-26T14:15:35.828Z,97749.25
2022-08-26T14:18:04.368Z,97751.47
2022-08-26T14:20:33.356Z,97749.44
2022-08-26T14:23:15.469Z,97739.63
2022-08-26T14:25:42.566Z,97733.78
2022-08-26T14:28:09.399Z,97738.03
2022-08-26T14:30:37.329Z,97738.91
2022-08-26T14:33:05.160Z,97746.56
2022-08-26T14:35:31.826Z,97748.59
2022-08-26T14:37:58.465Z,97754.50
2022-08-26T14:40:29.064Z,97750.56
2022-08-26T14:42:55.892Z,97751.19
2022-08-26T14:45:26.841Z,97748.94
2022-08-26T14:47:56.513Z,97753.03
2022-08-26T14:50:26.138Z,97747.41
2022-08-26T14:53:11.451Z,97751.69
2022-08-26T14:55:40.892Z,97747.25
2022-08-26T14:58:09.374Z,97756.31
2022-08-26T15:00:36.549Z,97760.75
2022-08-26T15:03:03.822Z,97752.69
2022-08-26T15:05:30.584Z,97748.44
2022-08-26T15:07:57.205Z,97748.25
2022-08-26T15:10:23.948Z,97741.00
2022-08-26T15:12:52.923Z,97747.47
2022-08-26T15:15:19.618Z,97745.91
2022-08-26T15:17:46.235Z,97740.75
2022-08-26T15:20:15.964Z,97742.38
2022-08-26T15:22:43.155Z,97747.81
2022-08-26T15:25:10.776Z,97753.50
2022-08-26T15:27:37.585Z,97749.97
2022-08-26T15:30:09.537Z,97758.69
2022-08-26T15:32:36.354Z,97753.00
2022-08-26T15:35:08.158Z,97757.88
2022-08-26T15:37:35.865Z,97751.91
2022-08-26T15:40:02.681Z,97758.97
2022-08-26T15:42:29.335Z,97757.31
2022-08-26T15:44:56.074Z,97751.34
2022-08-26T15:47:23.738Z,97741.06
2022-08-26T15:49:50.663Z,97737.78
2022-08-26T15:52:17.441Z,97745.41
2022-08-26T15:54:44.079Z,97749.75
2022-08-26T15:57:12.336Z,97742.97
2022-08-26T15:59:40.322Z,97746.22
2022-08-26T16:02:07.361Z,97757.31
2022-08-26T16:04:34.118Z,97764.94
2022-08-26T16:07:01.001Z,97787.91
2022-08-26T16:09:28.770Z,97812.97
2022-08-26T16:11:56.168Z,97808.97
2022-08-26T16:14:23.578Z,97812.50
2022-08-26T16:16:50.936Z,97820.81
2022-08-26T16:19:17.833Z,97835.84
2022-08-26T16:21:44.665Z,97849.69
2022-08-26T16:24:11.980Z,97856.72
2022-08-26T16:26:39.933Z,97858.53
2022-08-26T16:29:09.211Z,97873.56
2022-08-26T16:31:37.180Z,97879.94
2022-08-26T16:34:04.670Z,97892.19
2022-08-26T16:36:31.432Z,97881.63
2022-08-26T16:38:58.207Z,97882.41
2022-08-26T16:41:27.165Z,97899.38
2022-08-26T16:43:54.335Z,97891.03
2022-08-26T16:46:23.595Z,97894.00
2022-08-26T16:48:50.322Z,97883.50
2022-08-26T16:51:18.951Z,97897.94
2022-08-26T16:53:46.087Z,97891.59
2022-08-26T16:56:17.201Z,97895.03
2022-08-26T16:58:44.144Z,97886.19
2022-08-26T17:01:11.000Z,97887.50
2022-08-26T17:03:37.667Z,97877.47
2022-08-26T17:06:04.416Z,97884.13
2022-08-26T17:08:30.935Z,97867.28
2022-08-26T17:10:59.283Z,97870.56
2022-08-26T17:13:34.689Z,97860.25
2022-08-26T17:16:02.529Z,97851.25
2022-08-26T17:18:31.238Z,97845.75
2022-08-26T17:21:02.017Z,97838.00
2022-08-26T17:23:28.683Z,97846.88
2022-08-26T17:25:55.265Z,97829.56
2022-08-26T17:28:21.919Z,97845.00
2022-08-26T17:30:48.637Z,97842.72
2022-08-26T17:33:15.273Z,97838.81
2022-08-26T17:35:45.307Z,97847.81
2022-08-26T17:38:11.875Z,97862.13
2022-08-26T17:40:39.204Z,97851.59
2022-08-26T17:43:10.329Z,97852.88
2022-08-26T17:45:40.270Z,97858.56
2022-08-26T17:48:07.107Z,97867.69
2022-08-26T17:50:33.743Z,97865.41
2022-08-26T17:53:00.424Z,97870.13
2022-08-26T17:55:27.105Z,97879.13
2022-08-26T17:57:54.081Z,97877.00
2022-08-26T18:00:23.355Z,97881.16
2022-08-26T18:02:49.999Z,97881.16
2022-08-26T18:05:17.536Z,97885.88
2022-08-26T18:07:44.867Z,97872.25
2022-08-26T18:10:13.648Z,97867.63
2022-08-26T18:12:40.981Z,97868.84
2022-08-26T18:15:08.896Z,97870.25
2022-08-26T18:17:35.531Z,97873.53
2022-08-26T18:20:02.266Z,97889.22
2022-08-26T18:22:28.983Z,97926.03
2022-08-26T18:24:59.245Z,97938.25
2022-08-26T18:27:26.707Z,97955.84
2022-08-26T18:29:54.665Z,97956.72
2022-08-26T18:32:21.266Z,97959.41
2022-08-26T18:34:48.366Z,97966.22
2022-08-26T18:37:15.100Z,97977.09
2022-08-26T18:39:41.743Z,97983.53
2022-08-26T18:42:08.909Z,97990.19
2022-08-26T18:44:35.620Z,98001.63
2022-08-26T18:47:02.345Z,98001.41
2022-08-26T18:49:29.343Z,98013.00
2022-08-26T18:51:56.007Z,98016.94
2022-08-26T18:54:22.655Z,98013.00
2022-08-26T18:56:49.439Z,98007.63
2022-08-26T18:59:16.067Z,98015.50
2022-08-26T19:01:43.226Z,98010.69
2022-08-26T19:04:14.774Z,98005.84
2022-08-26T19:06:42.493Z,98011.19
2022-08-26T19:09:11.799Z,98008.69
2022-08-26T19:11:42.824Z,98008.88
2022-08-26T19:14:13.507Z,98008.78
2022-08-26T19:16:45.600Z,98020.31
2022-08-26T19:19:12.737Z,98028.53
2022-08-26T19:21:39.890Z,98016.97
2022-08-26T19:24:15.328Z,98021.28
2022-08-26T19:26:46.806Z,98021.94
2022-08-26T19:29:13.776Z,98023.41
2022-08-26T19:31:42.164Z,98016.56
2022-08-26T19:34:11.005Z,98005.47
2022-08-26T19:36:37.967Z,98010.03
2022-08-26T19:39:08.253Z,98005.91
2022-08-26T19:41:37.924Z,98012.72
2022-08-26T19:44:07.988Z,98002.19
2022-08-26T19:46:34.964Z,98004.50
2022-08-26T19:49:01.624Z,98006.31
2022-08-26T19:51:30.437Z,98012.03
2022-08-26T19:53:58.875Z,98013.69
2022-08-26T19:56:26.627Z,98019.06
2022-08-26T19:58:54.375Z,98015.22
2022-08-26T20:01:21.427Z,98015.03
2022-08-26T20:03:48.288Z,98020.41
2022-08-26T20:06:16.503Z,98020.84
2022-08-26T20:08:43.886Z,98025.19
2022-08-26T20:11:14.528Z,98027.50
2022-08-26T20:13:41.944Z,98029.06
2022-08-26T20:16:10.362Z,98031.09
2022-08-26T20:18:55.594Z,98035.84
2022-08-26T20:21:28.230Z,98041.19
2022-08-26T20:24:04.350Z,98040.81
2022-08-26T20:26:33.174Z,98053.34
2022-08-26T20:29:00.095Z,98034.34
2022-08-26T20:31:27.034Z,98044.06
2022-08-26T20:33:53.948Z,98040.19
2022-08-26T20:36:22.243Z,98037.09
2022-08-26T20:38:49.492Z,98037.34
2022-08-26T20:41:16.970Z,98033.25
2022-08-26T20:43:43.904Z,98033.25
2022-08-26T20:46:16.907Z,98032.44
2022-08-26T20:48:45.631Z,98045.19
2022-08-26T20:51:12.395Z,98037.22
2022-08-26T20:53:39.203Z,98047.53
2022-08-26T20:56:08.557Z,98031.25
2022-08-26T20:58:35.771Z,98033.91
2022-08-26T21:01:07.340Z,98028.81
2022-08-26T21:03:35.576Z,98034.59
2022-08-26T21:06:03.111Z,98034.59
2022-08-26T21:08:29.794Z,98030.91
2022-08-26T21:10:59.699Z,98035.00
2022-08-26T21:13:26.293Z,98042.00
2022-08-26T21:15:56.127Z,98061.34
2022-08-26T21:18:22.736Z,98064.41
2022-08-26T21:20:49.433Z,98069.56
2022-08-26T21:23:16.016Z,98065.91
2022-08-26T21:25:42.654Z,98063.63
2022-08-26T21:28:09.793Z,98062.59
2022-08-26T21:30:40.557Z,98067.94
2022-08-26T21:33:07.706Z,98062.19
2022-08-26T21:35:34.377Z,98057.66
2022-08-26T21:38:01.131Z,98061.34
2022-08-26T21:40:27.867Z,98064.25
2022-08-26T21:42:54.611Z,98061.59
2022-08-26T21:45:21.199Z,98069.59
2022-08-26T21:47:47.790Z,98065.06
2022-08-26T21:50:14.360Z,98071.28
2022-08-26T21:52:40.951Z,98068.38
2022-08-26T21:55:09.037Z,98071.28
2022-08-26T21:57:36.402Z,98080.69
2022-08-26T22:00:04.867Z,98071.66
2022-08-26T22:02:32.680Z,98071.25
2022-08-26T22:04:59.327Z,98072.88
2022-08-26T22:07:25.898Z,98076.19
2022-08-26T22:09:52.488Z,98066.50
2022-08-26T22:12:19.086Z,98067.13
2022-08-26T22:14:45.965Z,98069.81
2022-08-26T22:17:12.616Z,98065.47
2022-08-26T22:19:45.694Z,98062.97
2022-08-26T22:22:13.802Z,98052.28
2022-08-26T22:24:40.626Z,98070.81
2022-08-26T22:27:07.215Z,98074.34
2022-08-26T22:29:34.388Z,98075.78
2022-08-26T22:32:01.612Z,98077.63
2022-08-26T22:34:28.267Z,98081.31
2022-08-26T22:36:55.255Z,98086.44
2022-08-26T22:39:24.006Z,98082.34
2022-08-26T22:41:51.973Z,98085.19
2022-08-26T22:44:20.486Z,98081.72
2022-08-26T22:49:21.372Z,98082.78
2022-08-26T22:51:48.590Z,98092.47
2022-08-26T22:54:15.986Z,98093.28
2022-08-26T22:56:44.322Z,98100.88
2022-08-26T22:59:11.617Z,98100.06
2022-08-26T23:01:42.162Z,98093.66
2022-08-26T23:04:09.432Z,98093.22
2022-08-26T23:06:38.287Z,98096.31
2022-08-26T23:09:06.376Z,98097.31
2022-08-26T23:11:34.050Z,98099.78
2022-08-26T23:14:06.117Z,98098.16
2022-08-26T23:16:39.496Z,98093.81
2022-08-26T23:19:06.415Z,98083.34
2022-08-26T23:21:33.472Z,98085.59
2022-08-26T23:24:01.019Z,98084.34
2022-08-26T23:26:28.171Z,98087.84
2022-08-26T23:28:55.111Z,98091.75
2022-08-26T23:31:21.836Z,98079.22
2022-08-26T23:34:07.127Z,98078.38
2022-08-26T23:36:34.956Z,98075.69
2022-08-26T23:39:03.157Z,98074.44
2022-08-26T23:41:30.005Z,98074.03
2022-08-26T23:43:58.706Z,98072.81
2022-08-26T23:46:28.392Z,98070.72
2022-08-26T23:48:55.147Z,98067.41
2022-08-26T23:51:40.600Z,98068.66
2022-08-26T23:54:07.394Z,98067.41
2022-08-26T23:56:35.321Z,98059.38
2022-08-26T23:59:02.216Z,98061.19
